createdAt,value
2018-12-18T00:00:35.145Z,10.03
2018-12-18T00:03:02.628Z,13.47
2018-12-18T00:05:36.644Z,7.33
2018-12-18T00:08:04.131Z,9.23
2018-12-18T00:10:37.319Z,9.60
2018-12-18T00:13:04.879Z,11.23
2018-12-18T00:15:32.360Z,11.03
2018-12-18T00:17:59.849Z,10.03
2018-12-18T00:20:27.347Z,10.87
2018-12-18T00:22:54.937Z,9.93
2018-12-18T00:25:22.496Z,11.87
2018-12-18T00:27:49.980Z,9.10
2018-12-18T00:30:17.461Z,9.70
2018-12-18T00:32:44.949Z,9.63
2018-12-18T00:35:12.428Z,9.70
2018-12-18T00:37:39.913Z,9.60
2018-12-18T00:40:07.565Z,11.70
2018-12-18T00:42:35.054Z,8.90
2018-12-18T00:45:02.537Z,14.93
2018-12-18T00:47:30.039Z,8.37
2018-12-18T00:49:57.521Z,7.47
2018-12-18T00:52:25.011Z,10.50
2018-12-18T00:54:52.501Z,12.70
2018-12-18T00:57:19.993Z,9.67
2018-12-18T00:59:47.477Z,14.50
2018-12-18T01:02:14.960Z,11.07
2018-12-18T01:04:42.448Z,10.87
2018-12-18T01:07:09.933Z,13.67
2018-12-18T01:09:37.420Z,6.50
2018-12-18T01:12:04.909Z,8.10
2018-12-18T01:14:32.397Z,10.93
2018-12-18T01:16:59.885Z,14.00
2018-12-18T01:19:27.368Z,14.47
2018-12-18T01:21:54.853Z,16.70
2018-12-18T01:24:22.336Z,12.47
2018-12-18T01:26:49.824Z,17.20
2018-12-18T01:29:17.318Z,11.00
2018-12-18T01:31:44.800Z,6.47
2018-12-18T01:34:12.288Z,15.20
2018-12-18T01:36:39.881Z,9.87
2018-12-18T01:39:07.440Z,11.10
2018-12-18T01:41:35.196Z,15.33
2018-12-18T01:44:02.678Z,13.33
2018-12-18T01:46:30.166Z,10.90
2018-12-18T01:48:57.655Z,11.10
2018-12-18T01:51:25.150Z,12.03
2018-12-18T01:53:52.637Z,12.40
2018-12-18T01:56:20.116Z,8.00
2018-12-18T01:58:47.597Z,8.50
2018-12-18T02:01:15.085Z,10.10
2018-12-18T02:03:42.575Z,10.23
2018-12-18T02:06:10.137Z,10.13
2018-12-18T02:08:37.634Z,16.70
2018-12-18T02:11:05.113Z,11.73
2018-12-18T02:13:32.682Z,9.57
2018-12-18T02:16:00.157Z,8.30
2018-12-18T02:18:27.651Z,12.20
2018-12-18T02:20:55.133Z,9.40
2018-12-18T02:23:22.617Z,8.30
2018-12-18T02:25:50.107Z,12.40
2018-12-18T02:28:17.588Z,9.17
2018-12-18T02:30:45.077Z,11.20
2018-12-18T02:33:12.565Z,11.83
2018-12-18T02:35:40.053Z,12.27
2018-12-18T02:38:07.529Z,7.87
2018-12-18T02:40:35.015Z,5.93
2018-12-18T02:43:02.502Z,7.50
2018-12-18T02:45:30.002Z,8.33
2018-12-18T02:47:57.490Z,8.17
2018-12-18T02:50:25.045Z,7.07
2018-12-18T02:52:52.536Z,9.30
2018-12-18T02:55:20.021Z,10.53
2018-12-18T02:57:47.501Z,8.67
2018-12-18T03:00:15.074Z,7.30
2018-12-18T03:02:42.561Z,6.43
2018-12-18T03:05:10.035Z,8.03
2018-12-18T03:07:37.527Z,7.70
2018-12-18T03:10:05.553Z,7.03
2018-12-18T03:12:33.033Z,9.53
2018-12-18T03:15:00.508Z,6.30
2018-12-18T03:17:27.997Z,8.97
2018-12-18T03:19:55.492Z,8.00
2018-12-18T03:22:22.973Z,7.67
2018-12-18T03:24:50.502Z,5.93
2018-12-18T03:27:18.064Z,6.37
2018-12-18T03:29:45.540Z,4.80
2018-12-18T03:32:13.902Z,5.10
2018-12-18T03:34:41.393Z,5.80
2018-12-18T03:37:08.881Z,5.30
2018-12-18T03:39:36.370Z,5.13
2018-12-18T03:42:03.965Z,5.27
2018-12-18T03:44:31.457Z,5.90
2018-12-18T03:46:58.937Z,6.10
2018-12-18T03:49:26.417Z,6.27
2018-12-18T03:51:53.901Z,5.13
2018-12-18T03:54:21.380Z,5.70
2018-12-18T03:56:48.880Z,5.70
2018-12-18T03:59:16.368Z,4.83
2018-12-18T04:01:43.856Z,4.20
2018-12-18T04:04:11.344Z,3.47
2018-12-18T04:06:38.820Z,6.43
2018-12-18T04:09:06.498Z,3.53
2018-12-18T04:11:35.957Z,5.57
2018-12-18T04:14:03.514Z,2.50
2018-12-18T04:16:31.001Z,4.53
2018-12-18T04:18:58.488Z,3.27
2018-12-18T04:21:25.973Z,3.83
2018-12-18T04:23:53.452Z,4.80
2018-12-18T04:26:20.936Z,3.37
2018-12-18T04:28:49.296Z,2.93
2018-12-18T04:31:16.775Z,3.00
2018-12-18T04:33:44.257Z,2.93
2018-12-18T04:36:11.742Z,4.90
2018-12-18T04:38:39.227Z,2.80
2018-12-18T04:41:06.704Z,3.00
2018-12-18T04:43:34.188Z,2.70
2018-12-18T04:46:01.669Z,4.10
2018-12-18T04:48:29.153Z,3.17
2018-12-18T04:50:56.638Z,3.37
2018-12-18T04:53:24.125Z,3.30
2018-12-18T04:55:51.654Z,4.17
2018-12-18T04:58:19.225Z,4.47
2018-12-18T05:00:46.705Z,4.03
2018-12-18T05:03:14.189Z,3.40
2018-12-18T05:05:41.668Z,3.70
2018-12-18T05:08:09.442Z,4.10
2018-12-18T05:10:36.925Z,2.70
2018-12-18T05:13:04.412Z,4.20
2018-12-18T05:15:31.898Z,4.40
2018-12-18T05:17:59.382Z,2.77
2018-12-18T05:20:26.861Z,3.90
2018-12-18T05:22:54.348Z,2.50
2018-12-18T05:25:21.836Z,2.80
2018-12-18T05:27:49.317Z,2.13
2018-12-18T05:30:16.807Z,3.23
2018-12-18T05:32:44.284Z,2.53
2018-12-18T05:35:11.779Z,8.70
2018-12-18T05:37:39.259Z,9.47
2018-12-18T05:40:06.816Z,4.80
2018-12-18T05:42:34.304Z,6.83
2018-12-18T05:45:01.993Z,4.33
2018-12-18T05:47:29.468Z,4.13
2018-12-18T05:49:56.960Z,2.23
2018-12-18T05:52:24.462Z,1.50
2018-12-18T05:54:51.949Z,2.73
2018-12-18T05:57:19.432Z,3.20
2018-12-18T05:59:46.925Z,3.80
2018-12-18T06:02:14.410Z,3.60
2018-12-18T06:04:41.894Z,5.20
2018-12-18T06:07:09.376Z,4.80
2018-12-18T06:09:36.860Z,2.43
2018-12-18T06:12:04.344Z,2.93
2018-12-18T06:14:31.821Z,2.80
2018-12-18T06:16:59.301Z,2.07
2018-12-18T06:19:26.786Z,2.40
2018-12-18T06:21:54.273Z,1.70
2018-12-18T06:24:21.757Z,1.27
2018-12-18T06:26:49.237Z,2.30
2018-12-18T06:29:16.724Z,1.53
2018-12-18T06:31:44.317Z,1.47
2018-12-18T06:34:11.801Z,1.90
2018-12-18T06:36:39.288Z,2.60
2018-12-18T06:39:06.769Z,1.70
2018-12-18T06:41:34.265Z,3.87
2018-12-18T06:44:01.826Z,3.57
2018-12-18T06:46:29.306Z,3.33
2018-12-18T06:48:56.786Z,2.80
2018-12-18T06:51:24.269Z,4.47
2018-12-18T06:53:51.752Z,4.27
2018-12-18T06:56:19.244Z,2.27
2018-12-18T06:58:46.738Z,2.70
2018-12-18T07:01:14.221Z,2.50
2018-12-18T07:03:41.705Z,4.10
2018-12-18T07:06:09.221Z,3.27
2018-12-18T07:08:36.704Z,6.43
2018-12-18T07:11:04.197Z,5.70
2018-12-18T07:13:31.690Z,3.60
2018-12-18T07:15:59.177Z,3.50
2018-12-18T07:18:26.662Z,3.10
2018-12-18T07:20:54.146Z,3.37
2018-12-18T07:23:21.632Z,3.17
2018-12-18T07:25:49.116Z,3.63
2018-12-18T07:28:16.600Z,4.10
2018-12-18T07:30:44.086Z,4.33
2018-12-18T07:33:11.568Z,7.23
2018-12-18T07:35:39.053Z,7.13
2018-12-18T07:38:06.546Z,6.60
2018-12-18T07:40:34.150Z,10.57
2018-12-18T07:43:01.633Z,14.37
2018-12-18T07:45:29.172Z,12.10
2018-12-18T07:47:56.660Z,14.07
2018-12-18T07:50:24.151Z,14.30
2018-12-18T07:52:51.637Z,8.93
2018-12-18T07:55:19.122Z,11.83
2018-12-18T07:57:46.949Z,11.77
2018-12-18T08:00:14.442Z,10.37
2018-12-18T08:02:41.927Z,9.00
2018-12-18T08:05:09.813Z,9.20
2018-12-18T08:07:37.303Z,15.50
2018-12-18T08:10:06.401Z,13.77
2018-12-18T08:12:33.891Z,11.40
2018-12-18T08:15:01.381Z,22.03
2018-12-18T08:17:28.878Z,11.80
2018-12-18T08:19:56.372Z,12.70
2018-12-18T08:22:23.852Z,9.70
2018-12-18T08:24:51.340Z,7.87
2018-12-18T08:27:18.820Z,9.07
2018-12-18T08:29:46.309Z,8.00
2018-12-18T08:32:13.795Z,9.90
2018-12-18T08:34:41.280Z,16.70
2018-12-18T08:37:08.776Z,11.43
2018-12-18T08:39:36.274Z,16.23
2018-12-18T08:42:03.761Z,9.90
2018-12-18T08:44:31.257Z,5.90
2018-12-18T08:46:58.737Z,5.27
2018-12-18T08:49:26.217Z,7.57
2018-12-18T08:51:53.705Z,5.97
2018-12-18T08:54:21.189Z,7.43
2018-12-18T08:56:48.676Z,7.27
2018-12-18T08:59:16.160Z,8.40
2018-12-18T09:01:43.645Z,5.47
2018-12-18T09:04:11.172Z,8.57
2018-12-18T09:06:38.655Z,5.60
2018-12-18T09:09:06.589Z,6.83
2018-12-18T09:11:34.072Z,5.37
2018-12-18T09:14:01.563Z,6.73
2018-12-18T09:16:34.780Z,6.77
2018-12-18T09:19:02.268Z,9.83
2018-12-18T09:21:29.750Z,9.30
2018-12-18T09:23:57.236Z,10.23
2018-12-18T09:26:24.720Z,11.87
2018-12-18T09:28:52.212Z,12.17
2018-12-18T09:31:19.769Z,6.97
2018-12-18T09:33:47.254Z,6.33
2018-12-18T09:36:14.817Z,8.20
2018-12-18T09:38:48.057Z,6.40
2018-12-18T09:41:21.272Z,5.63
2018-12-18T09:43:58.413Z,7.07
2018-12-18T09:46:25.888Z,7.80
2018-12-18T09:48:53.369Z,5.90
2018-12-18T09:51:20.853Z,18.13
2018-12-18T09:53:48.338Z,8.40
2018-12-18T09:56:15.812Z,8.63
2018-12-18T09:58:43.333Z,15.27
2018-12-18T10:01:10.811Z,9.80
2018-12-18T10:03:38.292Z,11.13
2018-12-18T10:06:05.782Z,12.87
2018-12-18T10:08:33.261Z,8.90
2018-12-18T10:11:01.068Z,12.50
2018-12-18T10:13:28.545Z,9.73
2018-12-18T10:15:56.041Z,13.43
2018-12-18T10:18:23.524Z,8.00
2018-12-18T10:20:51.018Z,11.97
2018-12-18T10:23:18.495Z,6.23
2018-12-18T10:25:45.981Z,5.73
2018-12-18T10:28:13.468Z,12.90
2018-12-18T10:30:40.956Z,10.33
2018-12-18T10:33:08.433Z,11.33
2018-12-18T10:35:36.763Z,7.40
2018-12-18T10:38:04.480Z,7.43
2018-12-18T10:40:32.006Z,5.60
2018-12-18T10:42:59.485Z,3.80
2018-12-18T10:45:27.409Z,7.67
2018-12-18T10:47:54.889Z,5.23
2018-12-18T10:50:22.376Z,3.70
2018-12-18T10:52:49.852Z,4.30
2018-12-18T10:55:17.331Z,5.07
2018-12-18T10:57:44.808Z,6.30
2018-12-18T11:00:16.140Z,8.97
2018-12-18T11:02:43.613Z,9.40
2018-12-18T11:05:11.092Z,10.43
2018-12-18T11:07:38.575Z,6.97
2018-12-18T11:10:06.129Z,7.17
2018-12-18T11:12:38.908Z,7.10
2018-12-18T11:15:07.056Z,4.37
2018-12-18T11:17:34.544Z,5.40
2018-12-18T11:20:02.028Z,5.00
2018-12-18T11:22:29.506Z,9.40
2018-12-18T11:24:56.989Z,7.30
2018-12-18T11:27:24.460Z,10.70
2018-12-18T11:29:51.941Z,16.97
2018-12-18T11:32:19.420Z,29.77
2018-12-18T11:34:46.897Z,17.37
2018-12-18T11:37:14.392Z,13.63
2018-12-18T11:39:41.974Z,14.13
2018-12-18T11:42:09.448Z,9.40
2018-12-18T11:44:36.928Z,10.43
2018-12-18T11:47:04.400Z,6.60
2018-12-18T11:49:31.879Z,11.73
2018-12-18T11:51:59.359Z,9.20
2018-12-18T11:54:26.832Z,7.40
2018-12-18T11:56:54.308Z,8.90
2018-12-18T11:59:21.791Z,5.20
2018-12-18T12:01:49.260Z,6.03
2018-12-18T12:04:16.811Z,7.60
2018-12-18T12:06:44.339Z,4.60
2018-12-18T12:09:11.813Z,3.67
2018-12-18T12:11:40.362Z,6.17
2018-12-18T12:14:08.143Z,3.77
2018-12-18T12:16:35.629Z,6.37
2018-12-18T12:19:03.110Z,3.83
2018-12-18T12:21:30.590Z,6.67
2018-12-18T12:23:58.068Z,15.33
2018-12-18T12:26:31.280Z,5.03
2018-12-18T12:28:58.753Z,7.23
2018-12-18T12:31:26.224Z,6.67
2018-12-18T12:33:53.704Z,5.40
2018-12-18T12:36:21.177Z,5.50
2018-12-18T12:38:48.649Z,5.13
2018-12-18T12:41:16.120Z,4.90
2018-12-18T12:43:43.601Z,7.30
2018-12-18T12:46:11.068Z,7.87
2018-12-18T12:48:44.178Z,7.90
2018-12-18T12:51:11.668Z,12.83
2018-12-18T12:53:39.525Z,15.80
2018-12-18T12:56:07.000Z,11.07
2018-12-18T12:58:34.482Z,12.80
2018-12-18T13:01:01.957Z,5.40
2018-12-18T13:03:29.433Z,9.60
2018-12-18T13:05:56.988Z,4.37
2018-12-18T13:08:24.477Z,5.13
2018-12-18T13:10:51.949Z,7.73
2018-12-18T13:13:19.428Z,7.40
2018-12-18T13:15:46.905Z,6.97
2018-12-18T13:18:14.377Z,3.70
2018-12-18T13:20:41.851Z,5.97
2018-12-18T13:23:09.326Z,8.27
2018-12-18T13:25:36.800Z,5.77
2018-12-18T13:28:04.285Z,4.57
2018-12-18T13:30:31.764Z,5.77
2018-12-18T13:32:59.233Z,5.57
2018-12-18T13:35:26.708Z,5.60
2018-12-18T13:37:54.190Z,5.20
2018-12-18T13:40:21.673Z,8.53
2018-12-18T13:42:49.148Z,7.23
2018-12-18T13:45:16.631Z,11.63
2018-12-18T13:47:44.100Z,7.87
2018-12-18T13:50:11.653Z,9.37
2018-12-18T13:52:39.136Z,9.73
2018-12-18T13:55:06.623Z,11.60
2018-12-18T13:57:34.112Z,7.20
2018-12-18T14:00:01.590Z,9.20
2018-12-18T14:02:29.061Z,9.27
2018-12-18T14:04:56.540Z,8.03
2018-12-18T14:07:24.013Z,10.37
2018-12-18T14:09:51.660Z,14.00
2018-12-18T14:12:19.141Z,8.63
2018-12-18T14:14:46.613Z,12.70
2018-12-18T14:17:14.093Z,9.00
2018-12-18T14:19:41.569Z,7.27
2018-12-18T14:22:09.049Z,6.63
2018-12-18T14:24:36.524Z,7.77
2018-12-18T14:27:04.001Z,6.87
2018-12-18T14:29:31.492Z,9.17
2018-12-18T14:31:58.971Z,17.00
2018-12-18T14:34:26.458Z,17.07
2018-12-18T14:36:56.457Z,13.80
2018-12-18T14:39:23.432Z,11.63
2018-12-18T14:41:50.913Z,16.57
2018-12-18T14:44:18.440Z,15.20
2018-12-18T14:46:45.936Z,10.57
2018-12-18T14:49:13.409Z,9.37
2018-12-18T14:51:40.882Z,6.07
2018-12-18T14:54:08.436Z,6.10
2018-12-18T14:56:35.913Z,7.73
2018-12-18T14:59:03.389Z,7.20
2018-12-18T15:01:30.865Z,6.13
2018-12-18T15:03:58.357Z,5.90
2018-12-18T15:06:25.832Z,3.80
2018-12-18T15:08:53.304Z,5.27
2018-12-18T15:11:20.786Z,6.97
2018-12-18T15:13:48.329Z,5.90
2018-12-18T15:16:15.812Z,6.30
2018-12-18T15:18:43.292Z,5.43
2018-12-18T15:21:10.789Z,6.03
2018-12-18T15:23:38.269Z,7.33
2018-12-18T15:26:05.909Z,11.03
2018-12-18T15:28:33.464Z,6.33
2018-12-18T15:31:00.941Z,9.10
2018-12-18T15:33:28.421Z,7.80
2018-12-18T15:35:55.980Z,7.23
2018-12-18T15:38:23.469Z,7.83
2018-12-18T15:40:50.950Z,4.83
2018-12-18T15:43:18.426Z,5.90
2018-12-18T15:45:45.922Z,6.10
2018-12-18T15:48:13.422Z,6.70
2018-12-18T15:50:40.916Z,7.77
2018-12-18T15:53:08.407Z,6.30
2018-12-18T15:55:35.892Z,10.83
2018-12-18T15:58:03.368Z,8.00
2018-12-18T16:00:30.866Z,7.37
2018-12-18T16:02:58.344Z,7.17
2018-12-18T16:05:25.830Z,10.13
2018-12-18T16:07:53.320Z,12.37
2018-12-18T16:10:20.808Z,17.80
2018-12-18T16:12:48.301Z,22.33
2018-12-18T16:15:15.803Z,24.90
2018-12-18T16:17:43.289Z,22.60
2018-12-18T16:20:10.852Z,18.67
2018-12-18T16:22:38.345Z,20.93
2018-12-18T16:25:06.212Z,19.30
2018-12-18T16:27:33.701Z,20.90
2018-12-18T16:30:01.197Z,23.90
2018-12-18T16:32:28.685Z,18.47
2018-12-18T16:34:57.267Z,16.77
2018-12-18T16:37:24.764Z,14.60
2018-12-18T16:39:52.258Z,12.80
2018-12-18T16:42:19.744Z,19.13
2018-12-18T16:44:47.236Z,19.70
2018-12-18T16:47:14.729Z,19.03
2018-12-18T16:49:42.224Z,13.40
2018-12-18T16:52:09.784Z,9.63
2018-12-18T16:54:37.356Z,11.03
2018-12-18T16:57:04.960Z,16.93
2018-12-18T16:59:32.462Z,10.30
2018-12-18T17:01:59.940Z,9.97
2018-12-18T17:04:27.420Z,8.23
2018-12-18T17:06:54.907Z,9.37
2018-12-18T17:09:22.388Z,10.03
2018-12-18T17:11:49.880Z,8.40
2018-12-18T17:14:17.390Z,12.33
2018-12-18T17:16:44.877Z,11.57
2018-12-18T17:19:12.368Z,12.43
2018-12-18T17:21:39.855Z,8.03
2018-12-18T17:24:07.340Z,10.30
2018-12-18T17:26:34.834Z,10.70
2018-12-18T17:29:02.361Z,11.23
2018-12-18T17:31:29.941Z,9.57
2018-12-18T17:33:57.505Z,9.50
2018-12-18T17:36:24.992Z,9.00
2018-12-18T17:38:52.477Z,10.00
2018-12-18T17:41:19.968Z,10.50
2018-12-18T17:43:47.736Z,9.07
2018-12-18T17:46:15.225Z,9.20
2018-12-18T17:48:42.721Z,8.87
2018-12-18T17:51:10.210Z,7.90
2018-12-18T17:53:37.761Z,9.20
2018-12-18T17:56:05.334Z,11.80
2018-12-18T17:58:32.821Z,8.70
2018-12-18T18:01:00.328Z,8.00
2018-12-18T18:03:27.809Z,6.43
2018-12-18T18:05:55.285Z,9.90
2018-12-18T18:08:22.844Z,10.90
2018-12-18T18:10:50.341Z,10.20
2018-12-18T18:13:17.825Z,8.87
2018-12-18T18:15:45.436Z,8.07
2018-12-18T18:18:12.925Z,11.83
2018-12-18T18:20:40.413Z,11.10
2018-12-18T18:23:07.990Z,11.10
2018-12-18T18:25:35.473Z,9.67
2018-12-18T18:28:02.956Z,8.10
2018-12-18T18:30:30.441Z,11.43
2018-12-18T18:32:57.929Z,10.63
2018-12-18T18:35:25.414Z,9.77
2018-12-18T18:37:52.902Z,9.70
2018-12-18T18:40:20.385Z,12.17
2018-12-18T18:42:47.877Z,12.10
2018-12-18T18:45:15.366Z,7.03
2018-12-18T18:47:42.852Z,10.97
2018-12-18T18:50:10.340Z,11.43
2018-12-18T18:52:37.857Z,9.50
2018-12-18T18:55:05.355Z,8.47
2018-12-18T18:57:32.937Z,13.90
2018-12-18T19:00:00.427Z,9.83
2018-12-18T19:02:27.913Z,9.23
2018-12-18T19:04:55.413Z,8.43
2018-12-18T19:07:22.992Z,12.40
2018-12-18T19:09:50.505Z,12.47
2018-12-18T19:12:18.047Z,8.93
2018-12-18T19:14:45.552Z,10.57
2018-12-18T19:17:13.033Z,9.97
2018-12-18T19:19:40.517Z,13.47
2018-12-18T19:22:08.001Z,8.13
2018-12-18T19:24:35.788Z,9.70
2018-12-18T19:27:03.368Z,12.70
2018-12-18T19:29:30.879Z,13.37
2018-12-18T19:31:58.380Z,12.20
2018-12-18T19:34:25.865Z,12.77
2018-12-18T19:36:53.465Z,12.17
2018-12-18T19:39:21.021Z,9.50
2018-12-18T19:41:48.532Z,11.33
2018-12-18T19:44:16.029Z,15.03
2018-12-18T19:46:43.521Z,9.97
2018-12-18T19:49:11.018Z,11.90
2018-12-18T19:51:38.501Z,9.83
2018-12-18T19:54:05.990Z,10.07
2018-12-18T19:56:33.478Z,12.10
2018-12-18T19:59:01.033Z,9.50
2018-12-18T20:01:28.569Z,8.40
2018-12-18T20:03:56.946Z,10.73
2018-12-18T20:06:24.446Z,11.00
2018-12-18T20:08:52.416Z,10.20
2018-12-18T20:11:19.906Z,13.93
2018-12-18T20:13:48.196Z,9.57
2018-12-18T20:16:15.685Z,10.43
2018-12-18T20:18:43.192Z,10.60
2018-12-18T20:21:10.811Z,9.90
2018-12-18T20:23:38.304Z,14.37
2018-12-18T20:26:06.778Z,8.20
2018-12-18T20:28:34.259Z,9.27
2018-12-18T20:31:01.744Z,8.97
2018-12-18T20:33:29.241Z,11.00
2018-12-18T20:35:56.734Z,11.10
2018-12-18T20:38:24.220Z,7.90
2018-12-18T20:40:51.708Z,10.60
2018-12-18T20:43:19.200Z,13.83
2018-12-18T20:45:46.905Z,13.67
2018-12-18T20:48:14.393Z,15.83
2018-12-18T20:50:41.877Z,7.33
2018-12-18T20:53:09.359Z,9.33
2018-12-18T20:55:36.964Z,10.00
2018-12-18T20:58:04.457Z,19.03
2018-12-18T21:00:32.012Z,15.10
2018-12-18T21:02:59.494Z,11.07
2018-12-18T21:05:27.000Z,13.27
2018-12-18T21:07:54.576Z,14.50
2018-12-18T21:10:22.062Z,17.10
2018-12-18T21:12:49.544Z,10.27
2018-12-18T21:15:17.093Z,7.60
2018-12-18T21:17:44.581Z,8.50
2018-12-18T21:20:12.084Z,9.73
2018-12-18T21:22:39.587Z,13.83
2018-12-18T21:25:07.219Z,10.00
2018-12-18T21:27:34.700Z,8.50
2018-12-18T21:30:02.185Z,6.27
2018-12-18T21:32:29.681Z,10.00
2018-12-18T21:34:57.165Z,9.70
2018-12-18T21:37:24.649Z,6.10
2018-12-18T21:39:52.196Z,9.37
2018-12-18T21:42:19.738Z,7.00
2018-12-18T21:44:47.250Z,7.43
2018-12-18T21:47:14.779Z,9.77
2018-12-18T21:49:42.442Z,4.27
2018-12-18T21:52:09.931Z,6.60
2018-12-18T21:54:37.416Z,11.23
2018-12-18T21:57:04.913Z,11.87
2018-12-18T21:59:32.400Z,12.77
2018-12-18T22:02:00.160Z,10.80
2018-12-18T22:04:27.645Z,14.03
2018-12-18T22:06:55.138Z,9.40
2018-12-18T22:09:22.617Z,7.40
2018-12-18T22:11:50.100Z,7.63
2018-12-18T22:14:17.587Z,8.27
2018-12-18T22:16:45.072Z,8.40
2018-12-18T22:19:12.556Z,7.20
2018-12-18T22:21:40.045Z,8.50
2018-12-18T22:24:07.532Z,5.40
2018-12-18T22:26:35.024Z,10.57
2018-12-18T22:29:02.592Z,7.00
2018-12-18T22:31:30.156Z,7.33
2018-12-18T22:33:57.645Z,11.17
2018-12-18T22:36:25.135Z,7.30
2018-12-18T22:38:52.617Z,6.33
2018-12-18T22:41:20.097Z,8.07
2018-12-18T22:43:47.583Z,6.07
2018-12-18T22:46:15.060Z,6.70
2018-12-18T22:48:42.552Z,6.40
2018-12-18T22:51:10.149Z,6.97
2018-12-18T22:53:37.636Z,5.47
2018-12-18T22:56:05.121Z,6.03
2018-12-18T22:58:32.610Z,6.40
2018-12-18T23:01:02.392Z,7.37
2018-12-18T23:03:29.954Z,6.23
2018-12-18T23:05:57.512Z,7.27
2018-12-18T23:08:25.004Z,8.20
2018-12-18T23:10:52.658Z,6.87
2018-12-18T23:13:23.511Z,6.10
2018-12-18T23:15:51.178Z,6.70
2018-12-18T23:18:18.764Z,6.57
2018-12-18T23:20:46.248Z,4.90
2018-12-18T23:23:14.008Z,4.80
2018-12-18T23:25:41.496Z,6.33
2018-12-18T23:28:09.028Z,5.20
2018-12-18T23:30:36.570Z,5.03
2018-12-18T23:33:04.052Z,7.33
2018-12-18T23:35:31.576Z,4.80
2018-12-18T23:37:59.057Z,8.73
2018-12-18T23:40:26.540Z,6.77
2018-12-18T23:42:54.093Z,5.53
2018-12-18T23:45:22.164Z,5.80
2018-12-18T23:47:49.649Z,6.40
2018-12-18T23:50:17.142Z,11.43
2018-12-18T23:52:44.628Z,10.70
2018-12-18T23:55:12.116Z,12.50
2018-12-18T23:57:39.600Z,7.97
